sensor_id;sensor_type;location;lat;lon;timestamp;P1;durP1;ratioP1;P2;durP2;ratioP2
20381;SDS011;10350;51.280;12.400;2022-11-14T00:01:35;33.33;;;17.80;;
20381;SDS011;10350;51.280;12.400;2022-11-14T00:04:01;29.83;;;17.10;;
20381;SDS011;10350;51.280;12.400;2022-11-14T00:06:27;54.92;;;18.75;;
20381;SDS011;10350;51.280;12.400;2022-11-14T00:08:53;29.88;;;16.60;;
20381;SDS011;10350;51.280;12.400;2022-11-14T00:11:25;39.40;;;17.40;;
20381;SDS011;10350;51.280;12.400;2022-11-14T00:13:54;30.95;;;17.75;;
20381;SDS011;10350;51.280;12.400;2022-11-14T00:16:20;36.53;;;18.27;;
20381;SDS011;10350;51.280;12.400;2022-11-14T00:18:46;34.15;;;18.23;;
20381;SDS011;10350;51.280;12.400;2022-11-14T00:21:12;35.15;;;18.10;;
20381;SDS011;10350;51.280;12.400;2022-11-14T00:23:38;30.05;;;16.48;;
20381;SDS011;10350;51.280;12.400;2022-11-14T00:26:04;45.30;;;17.67;;
20381;SDS011;10350;51.280;12.400;2022-11-14T00:28:30;45.70;;;17.92;;
20381;SDS011;10350;51.280;12.400;2022-11-14T00:30:56;38.30;;;17.23;;
20381;SDS011;10350;51.280;12.400;2022-11-14T00:33:22;31.80;;;17.38;;
20381;SDS011;10350;51.280;12.400;2022-11-14T00:35:52;39.05;;;17.40;;
20381;SDS011;10350;51.280;12.400;2022-11-14T00:38:18;40.25;;;17.65;;
20381;SDS011;10350;51.280;12.400;2022-11-14T00:40:44;38.17;;;17.27;;
20381;SDS011;10350;51.280;12.400;2022-11-14T00:43:10;36.58;;;18.27;;
20381;SDS011;10350;51.280;12.400;2022-11-14T00:45:36;40.28;;;17.65;;
20381;SDS011;10350;51.280;12.400;2022-11-14T00:48:02;29.60;;;16.73;;
20381;SDS011;10350;51.280;12.400;2022-11-14T00:50:28;34.33;;;17.63;;
20381;SDS011;10350;51.280;12.400;2022-11-14T00:52:54;30.83;;;17.38;;
20381;SDS011;10350;51.280;12.400;2022-11-14T00:55:20;33.25;;;17.00;;
20381;SDS011;10350;51.280;12.400;2022-11-14T00:57:46;32.40;;;17.02;;
20381;SDS011;10350;51.280;12.400;2022-11-14T01:00:12;48.05;;;18.02;;
20381;SDS011;10350;51.280;12.400;2022-11-14T01:02:39;36.50;;;17.17;;
20381;SDS011;10350;51.280;12.400;2022-11-14T01:05:05;43.17;;;17.80;;
20381;SDS011;10350;51.280;12.400;2022-11-14T01:07:31;30.67;;;15.93;;
20381;SDS011;10350;51.280;12.400;2022-11-14T01:09:57;43.25;;;18.08;;
20381;SDS011;10350;51.280;12.400;2022-11-14T01:12:23;33.88;;;18.33;;
20381;SDS011;10350;51.280;12.400;2022-11-14T01:14:49;36.35;;;17.67;;
20381;SDS011;10350;51.280;12.400;2022-11-14T01:17:15;68.85;;;18.67;;
20381;SDS011;10350;51.280;12.400;2022-11-14T01:19:41;36.30;;;17.23;;
20381;SDS011;10350;51.280;12.400;2022-11-14T01:22:07;35.05;;;17.38;;
20381;SDS011;10350;51.280;12.400;2022-11-14T01:24:33;33.35;;;16.88;;
20381;SDS011;10350;51.280;12.400;2022-11-14T01:26:59;41.53;;;17.48;;
20381;SDS011;10350;51.280;12.400;2022-11-14T01:29:25;32.80;;;17.10;;
20381;SDS011;10350;51.280;12.400;2022-11-14T01:31:55;40.40;;;17.48;;
20381;SDS011;10350;51.280;12.400;2022-11-14T01:34:21;38.20;;;17.33;;
20381;SDS011;10350;51.280;12.400;2022-11-14T01:36:47;29.30;;;15.63;;
20381;SDS011;10350;51.280;12.400;2022-11-14T01:39:13;33.53;;;16.42;;
20381;SDS011;10350;51.280;12.400;2022-11-14T01:41:39;35.50;;;17.27;;
20381;SDS011;10350;51.280;12.400;2022-11-14T01:44:10;33.28;;;16.48;;
20381;SDS011;10350;51.280;12.400;2022-11-14T01:46:38;38.20;;;17.00;;
20381;SDS011;10350;51.280;12.400;2022-11-14T01:49:07;43.72;;;17.25;;
20381;SDS011;10350;51.280;12.400;2022-11-14T01:51:49;47.28;;;18.42;;
20381;SDS011;10350;51.280;12.400;2022-11-14T01:54:29;38.47;;;17.83;;
20381;SDS011;10350;51.280;12.400;2022-11-14T01:56:56;35.08;;;18.80;;
20381;SDS011;10350;51.280;12.400;2022-11-14T01:59:23;38.50;;;18.40;;
20381;SDS011;10350;51.280;12.400;2022-11-14T02:04:21;33.65;;;16.95;;
20381;SDS011;10350;51.280;12.400;2022-11-14T02:06:48;42.38;;;18.10;;
20381;SDS011;10350;51.280;12.400;2022-11-14T02:09:15;38.88;;;18.65;;
20381;SDS011;10350;51.280;12.400;2022-11-14T02:11:42;34.28;;;16.88;;
20381;SDS011;10350;51.280;12.400;2022-11-14T02:14:09;28.25;;;13.32;;
20381;SDS011;10350;51.280;12.400;2022-11-14T02:16:35;36.35;;;17.50;;
20381;SDS011;10350;51.280;12.400;2022-11-14T02:19:03;38.70;;;18.25;;
20381;SDS011;10350;51.280;12.400;2022-11-14T02:21:30;42.87;;;19.00;;
20381;SDS011;10350;51.280;12.400;2022-11-14T02:23:56;33.33;;;17.20;;
20381;SDS011;10350;51.280;12.400;2022-11-14T02:26:22;42.30;;;17.50;;
20381;SDS011;10350;51.280;12.400;2022-11-14T02:28:48;34.95;;;17.02;;
20381;SDS011;10350;51.280;12.400;2022-11-14T02:31:15;37.75;;;16.85;;
20381;SDS011;10350;51.280;12.400;2022-11-14T02:33:41;35.70;;;17.92;;
20381;SDS011;10350;51.280;12.400;2022-11-14T02:36:07;36.60;;;18.50;;
20381;SDS011;10350;51.280;12.400;2022-11-14T02:38:34;43.78;;;19.75;;
20381;SDS011;10350;51.280;12.400;2022-11-14T02:41:00;38.17;;;18.63;;
20381;SDS011;10350;51.280;12.400;2022-11-14T02:43:26;36.50;;;18.83;;
20381;SDS011;10350;51.280;12.400;2022-11-14T02:45:52;37.90;;;19.27;;
20381;SDS011;10350;51.280;12.400;2022-11-14T02:48:18;43.95;;;21.25;;
20381;SDS011;10350;51.280;12.400;2022-11-14T02:50:46;45.83;;;20.42;;
20381;SDS011;10350;51.280;12.400;2022-11-14T02:53:13;36.10;;;18.55;;
20381;SDS011;10350;51.280;12.400;2022-11-14T02:55:39;36.90;;;19.17;;
20381;SDS011;10350;51.280;12.400;2022-11-14T02:58:04;42.65;;;19.90;;
20381;SDS011;10350;51.280;12.400;2022-11-14T03:00:31;44.58;;;21.02;;
20381;SDS011;10350;51.280;12.400;2022-11-14T03:02:57;39.67;;;20.70;;
20381;SDS011;10350;51.280;12.400;2022-11-14T03:05:23;40.72;;;19.30;;
20381;SDS011;10350;51.280;12.400;2022-11-14T03:07:53;40.08;;;19.52;;
20381;SDS011;10350;51.280;12.400;2022-11-14T03:10:19;37.05;;;19.92;;
20381;SDS011;10350;51.280;12.400;2022-11-14T03:12:45;43.10;;;19.27;;
20381;SDS011;10350;51.280;12.400;2022-11-14T03:15:11;36.63;;;19.08;;
20381;SDS011;10350;51.280;12.400;2022-11-14T03:17:37;42.20;;;19.17;;
20381;SDS011;10350;51.280;12.400;2022-11-14T03:20:04;38.45;;;18.38;;
20381;SDS011;10350;51.280;12.400;2022-11-14T03:22:30;39.00;;;18.80;;
20381;SDS011;10350;51.280;12.400;2022-11-14T03:24:56;38.45;;;18.15;;
20381;SDS011;10350;51.280;12.400;2022-11-14T03:27:22;34.22;;;19.02;;
20381;SDS011;10350;51.280;12.400;2022-11-14T03:29:48;31.05;;;17.92;;
20381;SDS011;10350;51.280;12.400;2022-11-14T03:32:15;39.38;;;18.13;;
20381;SDS011;10350;51.280;12.400;2022-11-14T03:34:41;35.70;;;18.08;;
20381;SDS011;10350;51.280;12.400;2022-11-14T03:37:07;33.38;;;18.20;;
20381;SDS011;10350;51.280;12.400;2022-11-14T03:39:33;32.85;;;16.77;;
20381;SDS011;10350;51.280;12.400;2022-11-14T03:41:59;32.40;;;17.23;;
20381;SDS011;10350;51.280;12.400;2022-11-14T03:44:25;33.58;;;16.65;;
20381;SDS011;10350;51.280;12.400;2022-11-14T03:46:51;32.40;;;17.38;;
20381;SDS011;10350;51.280;12.400;2022-11-14T03:49:17;32.60;;;16.95;;
20381;SDS011;10350;51.280;12.400;2022-11-14T03:51:43;33.90;;;16.17;;
20381;SDS011;10350;51.280;12.400;2022-11-14T03:54:09;30.15;;;15.40;;
20381;SDS011;10350;51.280;12.400;2022-11-14T03:56:35;33.08;;;16.58;;
20381;SDS011;10350;51.280;12.400;2022-11-14T03:59:01;32.00;;;16.65;;
20381;SDS011;10350;51.280;12.400;2022-11-14T04:01:27;31.90;;;16.65;;
20381;SDS011;10350;51.280;12.400;2022-11-14T04:03:53;31.23;;;16.50;;
20381;SDS011;10350;51.280;12.400;2022-11-14T04:06:19;32.13;;;15.73;;
20381;SDS011;10350;51.280;12.400;2022-11-14T04:08:45;29.05;;;15.65;;
20381;SDS011;10350;51.280;12.400;2022-11-14T04:11:11;31.02;;;16.95;;
20381;SDS011;10350;51.280;12.400;2022-11-14T04:13:37;29.42;;;16.10;;
20381;SDS011;10350;51.280;12.400;2022-11-14T04:16:03;32.50;;;15.48;;
20381;SDS011;10350;51.280;12.400;2022-11-14T04:18:29;32.75;;;16.20;;
20381;SDS011;10350;51.280;12.400;2022-11-14T04:20:55;31.83;;;15.52;;
20381;SDS011;10350;51.280;12.400;2022-11-14T04:23:21;28.48;;;15.02;;
20381;SDS011;10350;51.280;12.400;2022-11-14T04:25:47;29.23;;;15.23;;
20381;SDS011;10350;51.280;12.400;2022-11-14T04:28:13;29.80;;;15.55;;
20381;SDS011;10350;51.280;12.400;2022-11-14T04:30:40;32.50;;;16.23;;
20381;SDS011;10350;51.280;12.400;2022-11-14T04:33:09;30.77;;;15.65;;
20381;SDS011;10350;51.280;12.400;2022-11-14T04:35:35;27.98;;;14.70;;
20381;SDS011;10350;51.280;12.400;2022-11-14T04:38:01;37.63;;;17.48;;
20381;SDS011;10350;51.280;12.400;2022-11-14T04:40:27;30.02;;;16.90;;
20381;SDS011;10350;51.280;12.400;2022-11-14T04:42:53;26.70;;;14.25;;
20381;SDS011;10350;51.280;12.400;2022-11-14T04:45:19;32.17;;;15.32;;
20381;SDS011;10350;51.280;12.400;2022-11-14T04:47:45;31.75;;;16.00;;
20381;SDS011;10350;51.280;12.400;2022-11-14T04:50:11;29.30;;;15.43;;
20381;SDS011;10350;51.280;12.400;2022-11-14T04:52:37;29.55;;;15.52;;
20381;SDS011;10350;51.280;12.400;2022-11-14T04:55:03;27.80;;;15.43;;
20381;SDS011;10350;51.280;12.400;2022-11-14T04:57:29;28.85;;;15.43;;
20381;SDS011;10350;51.280;12.400;2022-11-14T04:59:55;26.52;;;15.05;;
20381;SDS011;10350;51.280;12.400;2022-11-14T05:02:21;29.65;;;15.40;;
20381;SDS011;10350;51.280;12.400;2022-11-14T05:04:47;32.35;;;16.02;;
20381;SDS011;10350;51.280;12.400;2022-11-14T05:07:13;28.92;;;15.73;;
20381;SDS011;10350;51.280;12.400;2022-11-14T05:09:39;31.08;;;17.08;;
20381;SDS011;10350;51.280;12.400;2022-11-14T05:12:06;30.38;;;17.05;;
20381;SDS011;10350;51.280;12.400;2022-11-14T05:14:32;32.60;;;18.10;;
20381;SDS011;10350;51.280;12.400;2022-11-14T05:16:58;40.33;;;21.17;;
20381;SDS011;10350;51.280;12.400;2022-11-14T05:19:24;37.92;;;19.40;;
20381;SDS011;10350;51.280;12.400;2022-11-14T05:21:51;40.55;;;21.08;;
20381;SDS011;10350;51.280;12.400;2022-11-14T05:24:17;38.78;;;19.77;;
20381;SDS011;10350;51.280;12.400;2022-11-14T05:26:44;36.72;;;17.95;;
20381;SDS011;10350;51.280;12.400;2022-11-14T05:29:10;36.50;;;18.13;;
20381;SDS011;10350;51.280;12.400;2022-11-14T05:31:36;37.15;;;18.25;;
20381;SDS011;10350;51.280;12.400;2022-11-14T05:34:02;35.58;;;18.40;;
20381;SDS011;10350;51.280;12.400;2022-11-14T05:36:28;32.35;;;17.05;;
20381;SDS011;10350;51.280;12.400;2022-11-14T05:38:54;31.05;;;17.08;;
20381;SDS011;10350;51.280;12.400;2022-11-14T05:41:20;29.00;;;16.10;;
20381;SDS011;10350;51.280;12.400;2022-11-14T05:43:46;34.58;;;18.20;;
20381;SDS011;10350;51.280;12.400;2022-11-14T05:46:13;30.17;;;16.17;;
20381;SDS011;10350;51.280;12.400;2022-11-14T05:48:40;36.93;;;17.50;;
20381;SDS011;10350;51.280;12.400;2022-11-14T05:51:08;31.90;;;15.70;;
20381;SDS011;10350;51.280;12.400;2022-11-14T05:53:34;30.98;;;17.17;;
20381;SDS011;10350;51.280;12.400;2022-11-14T05:56:01;30.05;;;15.45;;
20381;SDS011;10350;51.280;12.400;2022-11-14T05:58:27;31.95;;;15.10;;
20381;SDS011;10350;51.280;12.400;2022-11-14T06:01:00;29.05;;;15.10;;
20381;SDS011;10350;51.280;12.400;2022-11-14T06:03:29;29.77;;;15.82;;
20381;SDS011;10350;51.280;12.400;2022-11-14T06:05:55;29.95;;;15.88;;
20381;SDS011;10350;51.280;12.400;2022-11-14T06:08:20;31.98;;;15.82;;
20381;SDS011;10350;51.280;12.400;2022-11-14T06:10:46;27.95;;;15.25;;
20381;SDS011;10350;51.280;12.400;2022-11-14T06:13:12;29.52;;;15.07;;
20381;SDS011;10350;51.280;12.400;2022-11-14T06:15:39;32.55;;;16.20;;
20381;SDS011;10350;51.280;12.400;2022-11-14T06:18:05;35.60;;;16.80;;
20381;SDS011;10350;51.280;12.400;2022-11-14T06:20:31;73.10;;;19.17;;
20381;SDS011;10350;51.280;12.400;2022-11-14T06:22:57;37.35;;;17.40;;
20381;SDS011;10350;51.280;12.400;2022-11-14T06:25:23;89.40;;;19.80;;
20381;SDS011;10350;51.280;12.400;2022-11-14T06:27:49;106.72;;;18.33;;
20381;SDS011;10350;51.280;12.400;2022-11-14T06:30:15;53.30;;;18.77;;
20381;SDS011;10350;51.280;12.400;2022-11-14T06:32:41;30.70;;;15.27;;
20381;SDS011;10350;51.280;12.400;2022-11-14T06:35:07;84.43;;;18.60;;
20381;SDS011;10350;51.280;12.400;2022-11-14T06:37:36;74.82;;;17.90;;
20381;SDS011;10350;51.280;12.400;2022-11-14T06:40:02;35.22;;;16.33;;
20381;SDS011;10350;51.280;12.400;2022-11-14T06:42:28;56.60;;;16.33;;
20381;SDS011;10350;51.280;12.400;2022-11-14T06:44:54;32.83;;;14.77;;
20381;SDS011;10350;51.280;12.400;2022-11-14T06:47:23;47.47;;;14.80;;
20381;SDS011;10350;51.280;12.400;2022-11-14T06:49:49;52.47;;;15.77;;
20381;SDS011;10350;51.280;12.400;2022-11-14T06:52:15;37.58;;;14.93;;
20381;SDS011;10350;51.280;12.400;2022-11-14T06:54:41;26.80;;;15.43;;
20381;SDS011;10350;51.280;12.400;2022-11-14T06:57:07;43.35;;;14.82;;
20381;SDS011;10350;51.280;12.400;2022-11-14T06:59:33;29.33;;;13.82;;
20381;SDS011;10350;51.280;12.400;2022-11-14T07:01:59;29.45;;;14.00;;
20381;SDS011;10350;51.280;12.400;2022-11-14T07:04:25;24.42;;;13.32;;
20381;SDS011;10350;51.280;12.400;2022-11-14T07:06:51;27.77;;;13.65;;
20381;SDS011;10350;51.280;12.400;2022-11-14T07:09:17;27.58;;;14.10;;
20381;SDS011;10350;51.280;12.400;2022-11-14T07:11:43;33.88;;;14.30;;
20381;SDS011;10350;51.280;12.400;2022-11-14T07:14:11;25.20;;;13.77;;
20381;SDS011;10350;51.280;12.400;2022-11-14T07:16:37;27.13;;;13.52;;
20381;SDS011;10350;51.280;12.400;2022-11-14T07:19:04;28.67;;;14.00;;
20381;SDS011;10350;51.280;12.400;2022-11-14T07:21:32;29.00;;;15.80;;
20381;SDS011;10350;51.280;12.400;2022-11-14T07:23:58;27.50;;;13.95;;
20381;SDS011;10350;51.280;12.400;2022-11-14T07:26:25;37.50;;;15.82;;
20381;SDS011;10350;51.280;12.400;2022-11-14T07:28:51;30.15;;;15.10;;
20381;SDS011;10350;51.280;12.400;2022-11-14T07:31:18;37.67;;;19.50;;
20381;SDS011;10350;51.280;12.400;2022-11-14T07:33:44;31.48;;;17.83;;
20381;SDS011;10350;51.280;12.400;2022-11-14T07:36:11;30.92;;;16.90;;
20381;SDS011;10350;51.280;12.400;2022-11-14T07:38:37;35.28;;;17.60;;
20381;SDS011;10350;51.280;12.400;2022-11-14T07:43:29;44.67;;;21.17;;
20381;SDS011;10350;51.280;12.400;2022-11-14T07:46:03;35.63;;;20.40;;
20381;SDS011;10350;51.280;12.400;2022-11-14T07:48:30;37.88;;;19.60;;
20381;SDS011;10350;51.280;12.400;2022-11-14T07:51:00;36.70;;;20.42;;
20381;SDS011;10350;51.280;12.400;2022-11-14T07:53:26;44.22;;;18.67;;
20381;SDS011;10350;51.280;12.400;2022-11-14T07:55:53;34.28;;;18.48;;
20381;SDS011;10350;51.280;12.400;2022-11-14T07:58:19;31.58;;;17.42;;
20381;SDS011;10350;51.280;12.400;2022-11-14T08:00:45;35.67;;;19.60;;
20381;SDS011;10350;51.280;12.400;2022-11-14T08:03:11;36.60;;;18.30;;
20381;SDS011;10350;51.280;12.400;2022-11-14T08:05:37;34.38;;;18.60;;
20381;SDS011;10350;51.280;12.400;2022-11-14T08:08:03;50.65;;;20.02;;
20381;SDS011;10350;51.280;12.400;2022-11-14T08:10:29;38.42;;;19.38;;
20381;SDS011;10350;51.280;12.400;2022-11-14T08:12:59;40.67;;;21.88;;
20381;SDS011;10350;51.280;12.400;2022-11-14T08:15:25;37.03;;;19.80;;
20381;SDS011;10350;51.280;12.400;2022-11-14T08:17:52;45.65;;;20.08;;
20381;SDS011;10350;51.280;12.400;2022-11-14T08:20:18;36.60;;;19.00;;
20381;SDS011;10350;51.280;12.400;2022-11-14T08:22:44;43.05;;;20.48;;
20381;SDS011;10350;51.280;12.400;2022-11-14T08:25:10;43.00;;;21.38;;
20381;SDS011;10350;51.280;12.400;2022-11-14T08:27:36;39.15;;;21.02;;
20381;SDS011;10350;51.280;12.400;2022-11-14T08:30:02;48.85;;;24.02;;
20381;SDS011;10350;51.280;12.400;2022-11-14T08:32:28;39.15;;;22.20;;
20381;SDS011;10350;51.280;12.400;2022-11-14T08:34:54;37.42;;;21.30;;
20381;SDS011;10350;51.280;12.400;2022-11-14T08:37:20;33.50;;;20.65;;
20381;SDS011;10350;51.280;12.400;2022-11-14T08:39:46;41.47;;;23.08;;
20381;SDS011;10350;51.280;12.400;2022-11-14T08:42:12;34.53;;;19.92;;
20381;SDS011;10350;51.280;12.400;2022-11-14T08:44:38;28.10;;;17.10;;
20381;SDS011;10350;51.280;12.400;2022-11-14T08:47:04;31.45;;;15.73;;
20381;SDS011;10350;51.280;12.400;2022-11-14T08:49:30;25.50;;;15.32;;
20381;SDS011;10350;51.280;12.400;2022-11-14T08:51:56;25.13;;;14.07;;
20381;SDS011;10350;51.280;12.400;2022-11-14T08:54:23;23.20;;;13.45;;
20381;SDS011;10350;51.280;12.400;2022-11-14T08:56:49;21.58;;;13.13;;
20381;SDS011;10350;51.280;12.400;2022-11-14T08:59:15;21.45;;;12.43;;
20381;SDS011;10350;51.280;12.400;2022-11-14T09:01:41;22.50;;;12.00;;
20381;SDS011;10350;51.280;12.400;2022-11-14T09:04:07;20.67;;;12.68;;
20381;SDS011;10350;51.280;12.400;2022-11-14T09:06:33;18.75;;;12.27;;
20381;SDS011;10350;51.280;12.400;2022-11-14T09:08:59;19.88;;;12.82;;
20381;SDS011;10350;51.280;12.400;2022-11-14T09:11:25;18.08;;;11.93;;
20381;SDS011;10350;51.280;12.400;2022-11-14T09:13:54;18.10;;;11.98;;
20381;SDS011;10350;51.280;12.400;2022-11-14T09:16:20;16.35;;;11.90;;
20381;SDS011;10350;51.280;12.400;2022-11-14T09:18:46;15.18;;;10.07;;
20381;SDS011;10350;51.280;12.400;2022-11-14T09:21:12;16.88;;;11.45;;
20381;SDS011;10350;51.280;12.400;2022-11-14T09:23:38;16.50;;;10.68;;
20381;SDS011;10350;51.280;12.400;2022-11-14T09:26:05;16.13;;;11.40;;
20381;SDS011;10350;51.280;12.400;2022-11-14T09:28:31;16.60;;;11.43;;
20381;SDS011;10350;51.280;12.400;2022-11-14T09:31:04;17.50;;;10.55;;
20381;SDS011;10350;51.280;12.400;2022-11-14T09:33:31;16.42;;;10.75;;
20381;SDS011;10350;51.280;12.400;2022-11-14T09:35:58;18.13;;;11.02;;
20381;SDS011;10350;51.280;12.400;2022-11-14T09:38:25;18.83;;;11.43;;
20381;SDS011;10350;51.280;12.400;2022-11-14T09:48:22;16.42;;;10.32;;
20381;SDS011;10350;51.280;12.400;2022-11-14T09:51:02;16.25;;;11.40;;
20381;SDS011;10350;51.280;12.400;2022-11-14T09:53:33;19.42;;;11.60;;
20381;SDS011;10350;51.280;12.400;2022-11-14T09:56:01;18.35;;;11.50;;
20381;SDS011;10350;51.280;12.400;2022-11-14T09:58:27;16.10;;;10.65;;
20381;SDS011;10350;51.280;12.400;2022-11-14T10:00:54;15.85;;;10.75;;
20381;SDS011;10350;51.280;12.400;2022-11-14T10:03:35;18.42;;;9.98;;
20381;SDS011;10350;51.280;12.400;2022-11-14T10:06:18;16.30;;;10.85;;
20381;SDS011;10350;51.280;12.400;2022-11-14T10:11:23;15.85;;;10.32;;
20381;SDS011;10350;51.280;12.400;2022-11-14T10:36:44;15.02;;;9.35;;
20381;SDS011;10350;51.280;12.400;2022-11-14T10:41:40;14.02;;;8.73;;
20381;SDS011;10350;51.280;12.400;2022-11-14T10:44:10;14.38;;;9.07;;
20381;SDS011;10350;51.280;12.400;2022-11-14T10:46:42;12.52;;;8.73;;
20381;SDS011;10350;51.280;12.400;2022-11-14T10:49:18;13.68;;;8.35;;
20381;SDS011;10350;51.280;12.400;2022-11-14T10:51:45;13.10;;;7.82;;
20381;SDS011;10350;51.280;12.400;2022-11-14T10:54:13;14.63;;;8.40;;
20381;SDS011;10350;51.280;12.400;2022-11-14T10:56:46;14.35;;;8.02;;
20381;SDS011;10350;51.280;12.400;2022-11-14T10:59:12;13.63;;;7.85;;
20381;SDS011;10350;51.280;12.400;2022-11-14T11:06:37;14.23;;;7.95;;
20381;SDS011;10350;51.280;12.400;2022-11-14T11:09:07;11.77;;;7.90;;
20381;SDS011;10350;51.280;12.400;2022-11-14T11:11:55;12.27;;;8.05;;
20381;SDS011;10350;51.280;12.400;2022-11-14T11:14:21;13.80;;;8.13;;
20381;SDS011;10350;51.280;12.400;2022-11-14T11:16:47;15.38;;;7.90;;
20381;SDS011;10350;51.280;12.400;2022-11-14T11:19:17;12.88;;;7.90;;
20381;SDS011;10350;51.280;12.400;2022-11-14T11:21:50;11.45;;;7.88;;
20381;SDS011;10350;51.280;12.400;2022-11-14T11:24:30;12.20;;;8.27;;
20381;SDS011;10350;51.280;12.400;2022-11-14T11:27:41;15.52;;;8.50;;
20381;SDS011;10350;51.280;12.400;2022-11-14T11:29:44;11.30;;;8.50;;
20381;SDS011;10350;51.280;12.400;2022-11-14T11:32:10;13.25;;;7.55;;
20381;SDS011;10350;51.280;12.400;2022-11-14T11:34:36;12.27;;;7.80;;
20381;SDS011;10350;51.280;12.400;2022-11-14T11:39:41;11.25;;;7.43;;
20381;SDS011;10350;51.280;12.400;2022-11-14T11:42:08;11.23;;;7.53;;
20381;SDS011;10350;51.280;12.400;2022-11-14T11:44:39;11.65;;;7.00;;
20381;SDS011;10350;51.280;12.400;2022-11-14T11:47:09;12.80;;;7.85;;
20381;SDS011;10350;51.280;12.400;2022-11-14T11:49:39;10.07;;;6.93;;
20381;SDS011;10350;51.280;12.400;2022-11-14T11:52:14;12.75;;;7.65;;
20381;SDS011;10350;51.280;12.400;2022-11-14T11:55:10;13.88;;;7.30;;
20381;SDS011;10350;51.280;12.400;2022-11-14T11:57:36;13.15;;;7.40;;
20381;SDS011;10350;51.280;12.400;2022-11-14T12:00:22;12.27;;;6.97;;
20381;SDS011;10350;51.280;12.400;2022-11-14T12:02:49;14.18;;;7.45;;
20381;SDS011;10350;51.280;12.400;2022-11-14T12:08:17;11.85;;;7.07;;
20381;SDS011;10350;51.280;12.400;2022-11-14T12:10:45;11.20;;;7.10;;
20381;SDS011;10350;51.280;12.400;2022-11-14T12:16:00;15.38;;;6.70;;
20381;SDS011;10350;51.280;12.400;2022-11-14T12:21:16;11.45;;;7.50;;
20381;SDS011;10350;51.280;12.400;2022-11-14T12:31:39;8.65;;;6.15;;
20381;SDS011;10350;51.280;12.400;2022-11-14T12:36:38;10.52;;;6.55;;
20381;SDS011;10350;51.280;12.400;2022-11-14T12:39:05;9.77;;;6.20;;
20381;SDS011;10350;51.280;12.400;2022-11-14T12:41:32;9.95;;;6.57;;
20381;SDS011;10350;51.280;12.400;2022-11-14T12:44:21;10.90;;;7.00;;
20381;SDS011;10350;51.280;12.400;2022-11-14T12:57:29;8.02;;;5.38;;
20381;SDS011;10350;51.280;12.400;2022-11-14T13:00:15;10.38;;;6.00;;
20381;SDS011;10350;51.280;12.400;2022-11-14T13:05:35;10.68;;;6.55;;
20381;SDS011;10350;51.280;12.400;2022-11-14T13:10:34;9.50;;;6.35;;
20381;SDS011;10350;51.280;12.400;2022-11-14T13:13:11;10.68;;;6.28;;
20381;SDS011;10350;51.280;12.400;2022-11-14T13:15:56;12.70;;;5.85;;
20381;SDS011;10350;51.280;12.400;2022-11-14T13:18:55;10.75;;;6.65;;
20381;SDS011;10350;51.280;12.400;2022-11-14T13:24:34;9.60;;;6.05;;
20381;SDS011;10350;51.280;12.400;2022-11-14T13:27:27;8.52;;;5.38;;
20381;SDS011;10350;51.280;12.400;2022-11-14T13:29:53;12.40;;;6.20;;
20381;SDS011;10350;51.280;12.400;2022-11-14T13:35:31;11.40;;;6.00;;
20381;SDS011;10350;51.280;12.400;2022-11-14T13:38:21;8.40;;;5.43;;
20381;SDS011;10350;51.280;12.400;2022-11-14T13:51:26;9.07;;;5.72;;
20381;SDS011;10350;51.280;12.400;2022-11-14T13:53:53;8.27;;;5.65;;
20381;SDS011;10350;51.280;12.400;2022-11-14T13:56:24;9.60;;;5.30;;
20381;SDS011;10350;51.280;12.400;2022-11-14T14:14:13;11.32;;;6.40;;
20381;SDS011;10350;51.280;12.400;2022-11-14T14:16:56;8.40;;;5.70;;
20381;SDS011;10350;51.280;12.400;2022-11-14T14:22:17;8.52;;;5.55;;
20381;SDS011;10350;51.280;12.400;2022-11-14T14:25:02;11.77;;;6.30;;
20381;SDS011;10350;51.280;12.400;2022-11-14T14:27:33;8.65;;;5.22;;
20381;SDS011;10350;51.280;12.400;2022-11-14T14:30:05;9.55;;;6.22;;
20381;SDS011;10350;51.280;12.400;2022-11-14T14:32:32;9.60;;;6.32;;
20381;SDS011;10350;51.280;12.400;2022-11-14T14:34:58;11.02;;;6.13;;
20381;SDS011;10350;51.280;12.400;2022-11-14T14:37:28;10.35;;;5.93;;
20381;SDS011;10350;51.280;12.400;2022-11-14T14:39:55;9.38;;;6.22;;
20381;SDS011;10350;51.280;12.400;2022-11-14T14:42:21;10.52;;;6.32;;
20381;SDS011;10350;51.280;12.400;2022-11-14T14:44:51;9.75;;;6.45;;
20381;SDS011;10350;51.280;12.400;2022-11-14T14:49:56;13.63;;;7.32;;
20381;SDS011;10350;51.280;12.400;2022-11-14T14:52:31;9.88;;;6.13;;
20381;SDS011;10350;51.280;12.400;2022-11-14T14:54:57;11.27;;;6.00;;
20381;SDS011;10350;51.280;12.400;2022-11-14T14:57:26;8.80;;;5.57;;
20381;SDS011;10350;51.280;12.400;2022-11-14T14:59:59;11.05;;;6.97;;
20381;SDS011;10350;51.280;12.400;2022-11-14T15:02:26;10.95;;;6.55;;
20381;SDS011;10350;51.280;12.400;2022-11-14T15:04:53;12.63;;;6.43;;
20381;SDS011;10350;51.280;12.400;2022-11-14T15:07:21;9.20;;;5.82;;
20381;SDS011;10350;51.280;12.400;2022-11-14T15:09:55;9.30;;;6.03;;
20381;SDS011;10350;51.280;12.400;2022-11-14T15:12:22;8.82;;;5.88;;
20381;SDS011;10350;51.280;12.400;2022-11-14T15:14:49;11.30;;;6.65;;
20381;SDS011;10350;51.280;12.400;2022-11-14T15:17:17;9.30;;;6.40;;
20381;SDS011;10350;51.280;12.400;2022-11-14T15:19:44;12.68;;;7.05;;
20381;SDS011;10350;51.280;12.400;2022-11-14T15:24:39;13.35;;;7.22;;
20381;SDS011;10350;51.280;12.400;2022-11-14T15:30:03;12.45;;;7.05;;
20381;SDS011;10350;51.280;12.400;2022-11-14T15:32:33;10.52;;;7.00;;
20381;SDS011;10350;51.280;12.400;2022-11-14T15:35:06;17.45;;;7.22;;
20381;SDS011;10350;51.280;12.400;2022-11-14T15:37:35;13.02;;;7.63;;
20381;SDS011;10350;51.280;12.400;2022-11-14T15:40:20;12.20;;;6.78;;
20381;SDS011;10350;51.280;12.400;2022-11-14T15:42:46;13.38;;;7.35;;
20381;SDS011;10350;51.280;12.400;2022-11-14T15:45:19;10.73;;;7.20;;
20381;SDS011;10350;51.280;12.400;2022-11-14T15:47:45;13.50;;;7.25;;
20381;SDS011;10350;51.280;12.400;2022-11-14T15:52:40;12.75;;;7.47;;
20381;SDS011;10350;51.280;12.400;2022-11-14T15:55:15;13.88;;;7.70;;
20381;SDS011;10350;51.280;12.400;2022-11-14T15:57:41;16.05;;;7.97;;
20381;SDS011;10350;51.280;12.400;2022-11-14T16:00:11;11.85;;;6.82;;
20381;SDS011;10350;51.280;12.400;2022-11-14T16:02:40;11.43;;;7.18;;
20381;SDS011;10350;51.280;12.400;2022-11-14T16:05:11;12.38;;;7.15;;
20381;SDS011;10350;51.280;12.400;2022-11-14T16:07:38;11.95;;;6.65;;
20381;SDS011;10350;51.280;12.400;2022-11-14T16:10:26;12.85;;;7.55;;
20381;SDS011;10350;51.280;12.400;2022-11-14T16:12:50;10.80;;;6.78;;
20381;SDS011;10350;51.280;12.400;2022-11-14T16:15:16;12.13;;;7.28;;
20381;SDS011;10350;51.280;12.400;2022-11-14T16:17:44;14.70;;;7.18;;
20381;SDS011;10350;51.280;12.400;2022-11-14T16:20:14;11.57;;;7.25;;
20381;SDS011;10350;51.280;12.400;2022-11-14T16:22:42;12.77;;;7.22;;
20381;SDS011;10350;51.280;12.400;2022-11-14T16:25:11;11.00;;;6.93;;
20381;SDS011;10350;51.280;12.400;2022-11-14T16:27:39;14.88;;;7.90;;